createdAt,value
2023-04-11T00:00:42.134Z,99332.05
2023-04-11T00:05:05.797Z,99324.27
2023-04-11T00:09:29.659Z,99319.62
2023-04-11T00:13:51.724Z,99313.64
2023-04-11T00:18:13.816Z,99310.73
2023-04-11T00:22:31.334Z,99307.12
2023-04-11T00:26:53.954Z,99308.66
2023-04-11T00:31:17.952Z,99309.23
2023-04-11T00:35:34.570Z,99309.35
2023-04-11T00:39:57.371Z,99308.87
2023-04-11T00:44:21.149Z,99306.00
2023-04-11T00:48:44.891Z,99295.65
2023-04-11T00:53:06.918Z,99289.68
2023-04-11T00:57:23.486Z,99282.75
2023-04-11T01:01:47.403Z,99275.25
2023-04-11T01:05:12.858Z,99271.59
2023-04-11T01:08:17.545Z,99269.58
2023-04-11T01:11:20.762Z,99267.13
2023-04-11T01:14:25.626Z,99266.95
2023-04-11T01:17:28.872Z,99260.80
2023-04-11T01:20:33.732Z,99260.59
2023-04-11T01:23:36.517Z,99257.82
2023-04-11T01:26:39.358Z,99258.41
2023-04-11T01:29:42.798Z,99254.98
2023-04-11T01:32:45.732Z,99254.97
2023-04-11T01:35:49.060Z,99253.16
2023-04-11T01:38:51.820Z,99254.59
2023-04-11T01:44:59.660Z,99251.48
2023-04-11T01:48:07.492Z,99249.84
2023-04-11T01:51:10.362Z,99245.17
2023-04-11T01:54:13.078Z,99233.89
2023-04-11T01:57:15.914Z,99231.22
2023-04-11T02:00:19.678Z,99232.03
2023-04-11T02:03:22.660Z,99226.21
2023-04-11T02:06:27.509Z,99216.68
2023-04-11T02:09:30.407Z,99211.50
2023-04-11T02:12:34.782Z,99209.22
2023-04-11T02:15:37.633Z,99206.44
2023-04-11T02:18:42.059Z,99204.15
2023-04-11T02:21:46.004Z,99201.92
2023-04-11T02:24:51.274Z,99198.60
2023-04-11T02:27:54.034Z,99194.17
2023-04-11T02:30:59.889Z,99189.44
2023-04-11T02:34:02.853Z,99187.54
2023-04-11T02:37:05.704Z,99184.96
2023-04-11T02:40:10.583Z,99182.18
2023-04-11T02:43:15.137Z,99176.38
2023-04-11T02:46:18.424Z,99172.07
2023-04-11T02:49:22.304Z,99170.16
2023-04-11T02:52:26.108Z,99168.56
2023-04-11T02:55:29.051Z,99164.65
2023-04-11T02:58:31.909Z,99163.39
2023-04-11T03:01:38.370Z,99165.08
2023-04-11T03:04:41.443Z,99163.45
2023-04-11T03:07:48.755Z,99163.81
2023-04-11T03:10:51.594Z,99161.58
2023-04-11T03:13:55.371Z,99159.63
2023-04-11T03:16:58.095Z,99160.55
2023-04-11T03:20:07.220Z,99155.60
2023-04-11T03:23:10.866Z,99157.19
2023-04-11T03:26:15.010Z,99158.23
2023-04-11T03:29:18.217Z,99153.20
2023-04-11T03:32:33.081Z,99146.02
2023-04-11T03:35:37.097Z,99142.93
2023-04-11T03:38:40.009Z,99140.91
2023-04-11T03:41:43.892Z,99140.42
2023-04-11T03:44:47.331Z,99140.19
2023-04-11T03:47:50.599Z,99143.09
2023-04-11T03:50:56.161Z,99140.10
2023-04-11T03:54:03.027Z,99136.77
2023-04-11T03:57:10.574Z,99134.88
2023-04-11T04:00:14.605Z,99134.05
2023-04-11T04:03:20.709Z,99126.86
2023-04-11T04:06:24.143Z,99119.99
2023-04-11T04:09:26.954Z,99110.80
2023-04-11T04:12:31.172Z,99108.18
2023-04-11T04:15:44.568Z,99103.57
2023-04-11T04:18:48.584Z,99104.45
2023-04-11T04:21:51.512Z,99105.39
2023-04-11T04:24:58.198Z,99102.84
2023-04-11T04:28:08.127Z,99102.11
2023-04-11T04:31:15.477Z,99093.69
2023-04-11T04:34:21.732Z,99087.69
2023-04-11T04:37:25.905Z,99080.38
2023-04-11T04:40:44.674Z,99079.91
2023-04-11T04:43:48.835Z,99072.27
2023-04-11T04:46:58.394Z,99069.77
2023-04-11T04:50:03.562Z,99064.49
2023-04-11T04:53:07.305Z,99060.35
2023-04-11T04:56:11.768Z,99056.02
2023-04-11T04:59:18.667Z,99055.96
2023-04-11T05:02:26.799Z,99050.61
2023-04-11T05:05:32.338Z,99042.68
2023-04-11T05:08:36.315Z,99042.29
2023-04-11T05:11:40.954Z,99039.58
2023-04-11T05:14:45.009Z,99041.90
2023-04-11T05:17:48.316Z,99038.21
2023-04-11T05:20:52.225Z,99037.55
2023-04-11T05:23:57.552Z,99035.55
2023-04-11T05:27:00.918Z,99031.85
2023-04-11T05:30:03.833Z,99036.05
2023-04-11T05:33:12.891Z,99026.98
2023-04-11T05:36:17.481Z,99022.56
2023-04-11T05:39:21.609Z,99016.29
2023-04-11T05:42:25.430Z,99009.55
2023-04-11T05:45:28.259Z,98999.44
2023-04-11T05:48:31.172Z,98998.89
2023-04-11T05:51:34.027Z,98989.14
2023-04-11T05:54:37.428Z,98992.89
2023-04-11T05:57:40.199Z,98991.16
2023-04-11T06:00:43.202Z,98988.92
2023-04-11T06:03:46.534Z,98980.49
2023-04-11T06:06:49.528Z,98976.29
2023-04-11T06:09:52.261Z,98968.30
2023-04-11T06:12:55.356Z,98963.58
2023-04-11T06:15:59.335Z,98960.02
2023-04-11T06:19:05.771Z,98953.95
2023-04-11T06:22:08.492Z,98950.58
2023-04-11T06:25:11.284Z,98946.77
2023-04-11T06:28:14.304Z,98945.38
2023-04-11T06:31:17.096Z,98940.92
2023-04-11T06:34:19.878Z,98938.48
2023-04-11T06:37:23.738Z,98942.84
2023-04-11T06:40:26.518Z,98945.61
2023-04-11T06:43:29.328Z,98940.40
2023-04-11T06:46:32.094Z,98935.98
2023-04-11T06:49:34.894Z,98931.20
2023-04-11T06:52:37.851Z,98927.36
2023-04-11T06:55:40.538Z,98924.33
2023-04-11T06:58:43.295Z,98925.27
2023-04-11T07:01:46.868Z,98922.13
2023-04-11T07:04:49.693Z,98922.27
2023-04-11T07:07:54.058Z,98921.88
2023-04-11T07:10:56.826Z,98915.36
2023-04-11T07:14:00.616Z,98916.16
2023-04-11T07:17:03.364Z,98914.24
2023-04-11T07:20:09.233Z,98905.34
2023-04-11T07:23:12.165Z,98905.88
2023-04-11T07:26:16.814Z,98900.71
2023-04-11T07:29:20.153Z,98898.45
2023-04-11T07:32:23.128Z,98895.07
2023-04-11T07:35:26.006Z,98888.70
2023-04-11T07:38:31.320Z,98885.54
2023-04-11T07:41:34.116Z,98882.59
2023-04-11T07:44:36.947Z,98884.50
2023-04-11T07:47:39.721Z,98882.52
2023-04-11T07:50:42.512Z,98873.73
2023-04-11T07:53:45.635Z,98871.53
2023-04-11T07:56:48.394Z,98865.79
2023-04-11T07:59:51.092Z,98863.31
2023-04-11T08:02:54.266Z,98859.90
2023-04-11T08:05:57.194Z,98853.09
2023-04-11T08:09:00.924Z,98842.38
2023-04-11T08:12:04.615Z,98836.98
2023-04-11T08:15:07.836Z,98834.06
2023-04-11T08:18:12.253Z,98831.11
2023-04-11T08:21:15.329Z,98820.85
2023-04-11T08:24:18.319Z,98816.09
2023-04-11T08:27:21.272Z,98814.77
2023-04-11T08:30:24.231Z,98808.04
2023-04-11T08:33:27.501Z,98808.41
2023-04-11T08:36:31.503Z,98806.77
2023-04-11T08:39:34.208Z,98799.00
2023-04-11T08:42:37.038Z,98792.69
2023-04-11T08:45:40.974Z,98788.83
2023-04-11T08:48:43.844Z,98788.77
2023-04-11T08:51:47.834Z,98782.13
2023-04-11T08:54:54.801Z,98776.02
2023-04-11T08:57:59.638Z,98765.73
2023-04-11T09:01:26.774Z,98763.44
2023-04-11T09:04:40.883Z,98761.80
2023-04-11T09:07:52.564Z,98756.34
2023-04-11T09:11:01.363Z,98750.63
2023-04-11T09:14:09.408Z,98745.18
2023-04-11T09:17:16.971Z,98736.64
2023-04-11T09:20:22.106Z,98735.05
2023-04-11T09:23:27.247Z,98739.34
2023-04-11T09:26:30.498Z,98740.73
2023-04-11T09:29:41.579Z,98737.35
2023-04-11T09:32:44.412Z,98727.92
2023-04-11T09:35:49.595Z,98731.21
2023-04-11T09:38:52.671Z,98722.77
2023-04-11T09:41:56.886Z,98718.34
2023-04-11T09:44:59.630Z,98718.02
2023-04-11T09:48:02.561Z,98720.77
2023-04-11T09:51:07.072Z,98709.44
2023-04-11T09:54:12.077Z,98703.27
2023-04-11T09:57:15.405Z,98702.56
2023-04-11T10:00:21.772Z,98700.63
2023-04-11T10:03:25.602Z,98694.64
2023-04-11T10:06:41.507Z,98690.90
2023-04-11T10:09:45.896Z,98687.73
2023-04-11T10:12:49.804Z,98688.33
2023-04-11T10:16:08.991Z,98680.27
2023-04-11T10:19:23.042Z,98673.19
2023-04-11T10:23:00.121Z,98667.27
2023-04-11T10:26:02.931Z,98664.17
2023-04-11T10:29:28.489Z,98662.77
2023-04-11T10:32:31.428Z,98651.35
2023-04-11T10:35:34.229Z,98652.95
2023-04-11T10:38:37.104Z,98646.77
2023-04-11T10:41:39.869Z,98643.98
2023-04-11T10:44:42.677Z,98637.23
2023-04-11T10:47:57.578Z,98626.70
2023-04-11T10:51:00.440Z,98627.16
2023-04-11T10:54:03.591Z,98626.11
2023-04-11T10:57:06.500Z,98625.84
2023-04-11T11:00:14.317Z,98625.80
2023-04-11T11:03:19.397Z,98626.11
2023-04-11T11:06:22.849Z,98626.47
2023-04-11T11:09:26.372Z,98612.89
2023-04-11T11:12:29.101Z,98610.72
2023-04-11T11:15:37.920Z,98607.17
2023-04-11T11:18:41.907Z,98611.45
2023-04-11T11:21:44.635Z,98609.82
2023-04-11T11:24:47.446Z,98601.08
2023-04-11T11:27:58.893Z,98595.57
2023-04-11T11:31:01.648Z,98592.30
2023-04-11T11:34:22.047Z,98591.63
2023-04-11T11:37:26.224Z,98586.64
2023-04-11T11:40:29.146Z,98585.42
2023-04-11T11:43:35.959Z,98586.64
2023-04-11T11:46:38.906Z,98588.30
2023-04-11T11:49:45.873Z,98586.88
2023-04-11T11:52:48.824Z,98583.29
2023-04-11T11:55:52.598Z,98573.98
2023-04-11T11:58:55.789Z,98570.60
2023-04-11T12:01:58.905Z,98568.69
2023-04-11T12:05:05.093Z,98563.93
2023-04-11T12:08:08.961Z,98559.26
2023-04-11T12:11:15.169Z,98554.84
2023-04-11T12:14:24.488Z,98553.65
2023-04-11T12:17:36.308Z,98548.88
2023-04-11T12:20:41.455Z,98545.24
2023-04-11T12:23:44.227Z,98543.30
2023-04-11T12:27:05.579Z,98537.80
2023-04-11T12:30:11.464Z,98537.18
2023-04-11T12:33:14.311Z,98529.33
2023-04-11T12:36:17.355Z,98524.94
2023-04-11T12:39:20.361Z,98523.16
2023-04-11T12:42:26.710Z,98526.43
2023-04-11T12:45:30.240Z,98520.77
2023-04-11T12:48:33.048Z,98517.05
2023-04-11T12:51:35.997Z,98514.27
2023-04-11T12:54:38.752Z,98513.66
2023-04-11T12:57:42.453Z,98505.59
2023-04-11T13:00:45.315Z,98502.45
2023-04-11T13:03:48.163Z,98506.46
2023-04-11T13:06:52.396Z,98505.11
2023-04-11T13:09:55.230Z,98501.86
2023-04-11T13:13:00.647Z,98497.61
2023-04-11T13:16:09.041Z,98489.57
2023-04-11T13:19:11.871Z,98481.75
2023-04-11T13:22:14.735Z,98469.70
2023-04-11T13:25:18.376Z,98464.59
2023-04-11T13:28:21.796Z,98461.70
2023-04-11T13:31:27.503Z,98460.06
2023-04-11T13:34:30.374Z,98457.37
2023-04-11T13:37:33.357Z,98468.94
2023-04-11T13:40:36.186Z,98460.45
2023-04-11T13:43:38.955Z,98461.55
2023-04-11T13:46:41.758Z,98459.81
2023-04-11T13:49:44.791Z,98452.27
2023-04-11T13:52:47.588Z,98455.09
2023-04-11T13:55:51.208Z,98444.86
2023-04-11T13:58:54.066Z,98441.20
2023-04-11T14:01:57.061Z,98438.16
2023-04-11T14:04:59.907Z,98436.46
2023-04-11T14:08:03.359Z,98434.80
2023-04-11T14:11:06.656Z,98435.39
2023-04-11T14:14:09.397Z,98431.00
2023-04-11T14:17:12.219Z,98427.25
2023-04-11T14:20:15.709Z,98419.85
2023-04-11T14:23:18.555Z,98417.48
2023-04-11T14:26:21.409Z,98407.02
2023-04-11T14:29:24.865Z,98407.27
2023-04-11T14:32:27.626Z,98397.24
2023-04-11T14:35:31.440Z,98392.08
2023-04-11T14:38:34.155Z,98391.73
2023-04-11T14:41:37.003Z,98393.23
2023-04-11T14:44:39.979Z,98390.90
2023-04-11T14:47:43.559Z,98389.33
2023-04-11T14:50:46.490Z,98386.98
2023-04-11T14:53:55.167Z,98385.65
2023-04-11T14:56:58.625Z,98379.16
2023-04-11T15:00:01.673Z,98377.04
2023-04-11T15:03:04.680Z,98373.05
2023-04-11T15:06:09.151Z,98370.59
2023-04-11T15:09:12.399Z,98373.95
2023-04-11T15:12:15.388Z,98376.17
2023-04-11T15:15:18.224Z,98376.16
2023-04-11T15:18:23.770Z,98373.85
2023-04-11T15:21:27.426Z,98370.64
2023-04-11T15:24:30.392Z,98369.61
2023-04-11T15:27:33.473Z,98370.27
2023-04-11T15:30:46.046Z,98370.08
2023-04-11T15:33:49.240Z,98365.23
2023-04-11T15:36:52.017Z,98364.73
2023-04-11T15:39:55.513Z,98358.05
2023-04-11T15:42:58.233Z,98355.66
2023-04-11T15:46:04.289Z,98351.67
2023-04-11T15:49:07.128Z,98343.02
2023-04-11T15:52:09.958Z,98339.58
2023-04-11T15:55:12.816Z,98334.79
2023-04-11T15:58:15.692Z,98335.23
2023-04-11T16:01:23.590Z,98329.52
2023-04-11T16:04:27.223Z,98329.65
2023-04-11T16:07:30.233Z,98330.35
2023-04-11T16:10:33.875Z,98329.63
2023-04-11T16:13:36.812Z,98328.10
2023-04-11T16:16:39.884Z,98335.65
2023-04-11T16:19:42.708Z,98333.59
2023-04-11T16:22:47.166Z,98333.63
2023-04-11T16:25:50.401Z,98333.45
2023-04-11T16:28:53.479Z,98328.51
2023-04-11T16:31:56.369Z,98327.02
2023-04-11T16:35:00.359Z,98326.27
2023-04-11T16:38:04.264Z,98335.89
2023-04-11T16:41:07.098Z,98337.42
2023-04-11T16:44:11.531Z,98336.40
2023-04-11T16:47:14.402Z,98336.30
2023-04-11T16:50:17.979Z,98343.08
2023-04-11T16:53:20.713Z,98361.84
2023-04-11T16:56:25.200Z,98381.68
2023-04-11T16:59:30.411Z,98376.80
2023-04-11T17:02:33.234Z,98375.37
2023-04-11T17:05:36.368Z,98382.30
2023-04-11T17:08:41.327Z,98390.98
2023-04-11T17:11:44.636Z,98395.63
2023-04-11T17:14:49.518Z,98398.79
2023-04-11T17:17:52.697Z,98414.92
2023-04-11T17:20:56.029Z,98418.39
2023-04-11T17:23:59.126Z,98417.19
2023-04-11T17:27:02.451Z,98416.91
2023-04-11T17:30:06.887Z,98429.73
2023-04-11T17:33:09.896Z,98456.52
2023-04-11T17:36:13.332Z,98464.24
2023-04-11T17:39:18.077Z,98470.16
2023-04-11T17:42:21.415Z,98472.41
2023-04-11T17:45:24.564Z,98477.56
2023-04-11T17:48:27.634Z,98483.10
2023-04-11T17:51:31.478Z,98486.03
2023-04-11T17:54:34.425Z,98488.36
2023-04-11T17:57:40.431Z,98507.40
2023-04-11T18:00:54.964Z,98498.37
2023-04-11T18:04:01.869Z,98493.45
2023-04-11T18:07:07.153Z,98499.95
2023-04-11T18:10:21.999Z,98505.27
2023-04-11T18:13:27.172Z,98516.61
2023-04-11T18:16:29.977Z,98524.00
2023-04-11T18:19:32.999Z,98523.34
2023-04-11T18:22:38.214Z,98519.84
2023-04-11T18:25:41.421Z,98515.15
2023-04-11T18:28:44.350Z,98510.58
2023-04-11T18:31:47.308Z,98509.33
2023-04-11T18:34:51.120Z,98517.98
2023-04-11T18:37:55.158Z,98530.06
2023-04-11T18:41:00.725Z,98530.39
2023-04-11T18:44:09.653Z,98524.23
2023-04-11T18:47:17.491Z,98522.11
2023-04-11T18:50:22.597Z,98514.39
2023-04-11T18:53:26.117Z,98511.80
2023-04-11T18:56:28.861Z,98505.71
2023-04-11T18:59:35.675Z,98504.55
2023-04-11T19:02:39.369Z,98504.19
2023-04-11T19:05:43.894Z,98500.59
2023-04-11T19:08:47.012Z,98496.16
2023-04-11T19:11:49.906Z,98497.34
2023-04-11T19:14:52.847Z,98505.40
2023-04-11T19:17:57.468Z,98517.96
2023-04-11T19:21:00.768Z,98516.08
2023-04-11T19:24:04.050Z,98517.52
2023-04-11T19:27:08.104Z,98519.71
2023-04-11T19:30:13.601Z,98522.06
2023-04-11T19:33:17.070Z,98521.91
2023-04-11T19:36:20.110Z,98519.31
2023-04-11T19:39:22.897Z,98515.38
2023-04-11T19:42:25.966Z,98515.73
2023-04-11T19:45:31.599Z,98502.24
2023-04-11T19:48:35.262Z,98497.14
2023-04-11T19:51:39.460Z,98500.08
2023-04-11T19:54:42.510Z,98502.70
2023-04-11T19:57:46.308Z,98502.88
2023-04-11T20:00:49.284Z,98506.48
2023-04-11T20:03:53.706Z,98510.17
2023-04-11T20:06:58.489Z,98505.52
2023-04-11T20:10:01.312Z,98504.46
2023-04-11T20:13:04.381Z,98500.89
2023-04-11T20:16:08.390Z,98510.64
2023-04-11T20:19:11.494Z,98516.52
2023-04-11T20:22:18.396Z,98521.42
2023-04-11T20:25:21.314Z,98521.26
2023-04-11T20:28:25.352Z,98522.92
2023-04-11T20:31:28.343Z,98526.83
2023-04-11T20:34:31.223Z,98526.75
2023-04-11T20:37:35.182Z,98532.75
2023-04-11T20:40:38.088Z,98531.92
2023-04-11T20:43:42.202Z,98530.26
2023-04-11T20:46:46.217Z,98527.13
2023-04-11T20:49:49.720Z,98526.61
2023-04-11T20:52:52.928Z,98541.21
2023-04-11T20:55:55.806Z,98546.33
2023-04-11T20:58:58.548Z,98549.04
2023-04-11T21:02:01.389Z,98548.66
2023-04-11T21:05:05.092Z,98546.64
2023-04-11T21:08:07.819Z,98545.60
2023-04-11T21:11:10.824Z,98548.07
2023-04-11T21:14:13.702Z,98549.86
2023-04-11T21:17:16.453Z,98553.85
2023-04-11T21:20:20.197Z,98553.38
2023-04-11T21:23:23.272Z,98550.66
2023-04-11T21:26:26.183Z,98550.30
2023-04-11T21:29:29.148Z,98545.91
2023-04-11T21:32:32.706Z,98543.41
2023-04-11T21:35:35.589Z,98540.77
2023-04-11T21:38:38.328Z,98539.92
2023-04-11T21:41:41.525Z,98532.73
2023-04-11T21:44:44.268Z,98534.29
2023-04-11T21:47:47.228Z,98537.29
2023-04-11T21:50:50.082Z,98533.15
2023-04-11T21:53:52.802Z,98536.45
2023-04-11T21:56:57.257Z,98537.92
2023-04-11T21:59:59.967Z,98540.82
2023-04-11T22:03:02.834Z,98538.91
2023-04-11T22:06:06.485Z,98542.11
2023-04-11T22:09:10.150Z,98542.30
2023-04-11T22:12:17.628Z,98546.86
2023-04-11T22:15:20.709Z,98549.69
2023-04-11T22:18:26.906Z,98554.60
2023-04-11T22:21:31.845Z,98557.58
2023-04-11T22:24:34.641Z,98558.13
2023-04-11T22:27:38.465Z,98556.50
2023-04-11T22:30:43.992Z,98556.86
2023-04-11T22:33:47.342Z,98558.29
2023-04-11T22:36:50.179Z,98561.72
2023-04-11T22:39:52.918Z,98566.91
2023-04-11T22:42:55.835Z,98567.48
2023-04-11T22:45:58.962Z,98566.36
2023-04-11T22:49:01.713Z,98574.68
2023-04-11T22:52:04.538Z,98574.60
2023-04-11T22:55:10.252Z,98579.04
2023-04-11T22:58:13.895Z,98580.39
2023-04-11T23:01:17.592Z,98581.66
2023-04-11T23:04:22.190Z,98572.95
2023-04-11T23:07:25.261Z,98562.86
2023-04-11T23:10:28.850Z,98560.31
2023-04-11T23:13:31.700Z,98556.45
2023-04-11T23:16:34.484Z,98553.52
2023-04-11T23:19:37.353Z,98546.14
2023-04-11T23:22:42.031Z,98539.99
2023-04-11T23:25:45.381Z,98535.83
2023-04-11T23:28:48.667Z,98536.42
2023-04-11T23:31:51.477Z,98531.32
2023-04-11T23:34:54.296Z,98532.65
2023-04-11T23:37:57.776Z,98530.61
2023-04-11T23:41:00.562Z,98525.07
2023-04-11T23:44:03.471Z,98521.45
2023-04-11T23:47:06.267Z,98517.56
2023-04-11T23:50:09.614Z,98521.20
2023-04-11T23:53:12.397Z,98517.73
2023-04-11T23:56:15.249Z,98517.20
2023-04-11T23:59:17.970Z,98513.73
